sensor_id;sensor_type;location;lat;lon;timestamp;temperature;humidity
19567;DHT22;9930;49.240;8.548;2024-01-06T00:00:07;8.00;78.10
19567;DHT22;9930;49.240;8.548;2024-01-06T00:02:38;8.00;78.20
19567;DHT22;9930;49.240;8.548;2024-01-06T00:05:07;8.00;78.30
19567;DHT22;9930;49.240;8.548;2024-01-06T00:07:40;8.00;78.40
19567;DHT22;9930;49.240;8.548;2024-01-06T00:10:07;7.90;78.30
19567;DHT22;9930;49.240;8.548;2024-01-06T00:12:37;7.90;78.50
19567;DHT22;9930;49.240;8.548;2024-01-06T00:15:07;7.90;78.50
19567;DHT22;9930;49.240;8.548;2024-01-06T00:17:40;7.80;78.50
19567;DHT22;9930;49.240;8.548;2024-01-06T00:20:07;7.80;78.60
19567;DHT22;9930;49.240;8.548;2024-01-06T00:22:37;7.80;78.70
19567;DHT22;9930;49.240;8.548;2024-01-06T00:25:07;7.80;79.40
19567;DHT22;9930;49.240;8.548;2024-01-06T00:27:37;7.80;78.80
19567;DHT22;9930;49.240;8.548;2024-01-06T00:30:08;7.80;78.90
19567;DHT22;9930;49.240;8.548;2024-01-06T00:32:37;7.80;78.90
19567;DHT22;9930;49.240;8.548;2024-01-06T00:35:07;7.80;79.70
19567;DHT22;9930;49.240;8.548;2024-01-06T00:37:37;7.80;79.00
19567;DHT22;9930;49.240;8.548;2024-01-06T00:40:07;7.80;79.00
19567;DHT22;9930;49.240;8.548;2024-01-06T00:42:37;7.70;79.00
19567;DHT22;9930;49.240;8.548;2024-01-06T00:45:07;7.70;79.00
19567;DHT22;9930;49.240;8.548;2024-01-06T00:47:39;7.70;79.10
19567;DHT22;9930;49.240;8.548;2024-01-06T00:50:08;7.70;79.10
19567;DHT22;9930;49.240;8.548;2024-01-06T00:52:37;7.70;79.10
19567;DHT22;9930;49.240;8.548;2024-01-06T00:55:08;7.70;79.20
19567;DHT22;9930;49.240;8.548;2024-01-06T00:57:37;7.70;79.20
19567;DHT22;9930;49.240;8.548;2024-01-06T01:00:11;7.70;79.20
19567;DHT22;9930;49.240;8.548;2024-01-06T01:02:38;7.70;79.20
19567;DHT22;9930;49.240;8.548;2024-01-06T01:05:10;7.70;79.20
19567;DHT22;9930;49.240;8.548;2024-01-06T01:07:40;7.60;79.30
19567;DHT22;9930;49.240;8.548;2024-01-06T01:10:10;7.60;79.30
19567;DHT22;9930;49.240;8.548;2024-01-06T01:12:38;7.60;79.30
19567;DHT22;9930;49.240;8.548;2024-01-06T01:15:08;7.60;79.30
19567;DHT22;9930;49.240;8.548;2024-01-06T01:17:36;7.60;79.40
19567;DHT22;9930;49.240;8.548;2024-01-06T01:20:05;7.60;79.40
19567;DHT22;9930;49.240;8.548;2024-01-06T01:22:33;7.60;79.40
19567;DHT22;9930;49.240;8.548;2024-01-06T01:25:10;7.70;79.60
19567;DHT22;9930;49.240;8.548;2024-01-06T01:27:38;7.60;79.60
19567;DHT22;9930;49.240;8.548;2024-01-06T01:30:11;7.60;79.60
19567;DHT22;9930;49.240;8.548;2024-01-06T01:32:37;7.60;79.60
19567;DHT22;9930;49.240;8.548;2024-01-06T01:35:08;7.60;79.60
19567;DHT22;9930;49.240;8.548;2024-01-06T01:37:39;7.60;79.60
19567;DHT22;9930;49.240;8.548;2024-01-06T01:40:08;7.60;79.70
19567;DHT22;9930;49.240;8.548;2024-01-06T01:42:37;7.60;79.70
19567;DHT22;9930;49.240;8.548;2024-01-06T01:45:08;7.60;79.60
19567;DHT22;9930;49.240;8.548;2024-01-06T01:47:37;7.60;79.70
19567;DHT22;9930;49.240;8.548;2024-01-06T01:50:12;7.60;79.70
19567;DHT22;9930;49.240;8.548;2024-01-06T01:52:43;7.60;79.70
19567;DHT22;9930;49.240;8.548;2024-01-06T01:55:11;7.60;79.60
19567;DHT22;9930;49.240;8.548;2024-01-06T01:57:38;7.60;79.70
19567;DHT22;9930;49.240;8.548;2024-01-06T02:00:08;7.60;79.60
19567;DHT22;9930;49.240;8.548;2024-01-06T02:02:36;7.60;79.60
19567;DHT22;9930;49.240;8.548;2024-01-06T02:05:08;7.60;79.60
19567;DHT22;9930;49.240;8.548;2024-01-06T02:07:37;7.60;79.60
19567;DHT22;9930;49.240;8.548;2024-01-06T02:10:07;7.60;79.60
19567;DHT22;9930;49.240;8.548;2024-01-06T02:12:36;7.50;79.60
19567;DHT22;9930;49.240;8.548;2024-01-06T02:15:08;7.50;79.60
19567;DHT22;9930;49.240;8.548;2024-01-06T02:17:37;7.50;79.80
19567;DHT22;9930;49.240;8.548;2024-01-06T02:20:07;7.50;79.80
19567;DHT22;9930;49.240;8.548;2024-01-06T02:22:39;7.50;79.80
19567;DHT22;9930;49.240;8.548;2024-01-06T02:25:09;7.50;79.90
19567;DHT22;9930;49.240;8.548;2024-01-06T02:27:40;7.50;80.10
19567;DHT22;9930;49.240;8.548;2024-01-06T02:30:06;7.50;80.10
19567;DHT22;9930;49.240;8.548;2024-01-06T02:32:35;7.60;80.30
19567;DHT22;9930;49.240;8.548;2024-01-06T02:35:06;7.60;80.30
19567;DHT22;9930;49.240;8.548;2024-01-06T02:37:36;7.60;80.30
19567;DHT22;9930;49.240;8.548;2024-01-06T02:40:06;7.60;80.40
19567;DHT22;9930;49.240;8.548;2024-01-06T02:42:36;7.70;80.50
19567;DHT22;9930;49.240;8.548;2024-01-06T02:45:07;7.70;80.40
19567;DHT22;9930;49.240;8.548;2024-01-06T02:47:38;7.70;80.50
19567;DHT22;9930;49.240;8.548;2024-01-06T02:50:10;7.70;80.50
19567;DHT22;9930;49.240;8.548;2024-01-06T02:52:40;7.80;80.50
19567;DHT22;9930;49.240;8.548;2024-01-06T02:55:08;7.80;80.50
19567;DHT22;9930;49.240;8.548;2024-01-06T02:57:38;7.80;80.50
19567;DHT22;9930;49.240;8.548;2024-01-06T03:00:07;7.80;80.40
19567;DHT22;9930;49.240;8.548;2024-01-06T03:02:38;7.80;80.30
19567;DHT22;9930;49.240;8.548;2024-01-06T03:05:08;7.90;80.30
19567;DHT22;9930;49.240;8.548;2024-01-06T03:07:38;7.90;80.30
19567;DHT22;9930;49.240;8.548;2024-01-06T03:10:08;7.90;80.20
19567;DHT22;9930;49.240;8.548;2024-01-06T03:12:37;7.90;80.20
19567;DHT22;9930;49.240;8.548;2024-01-06T03:15:13;7.90;80.20
19567;DHT22;9930;49.240;8.548;2024-01-06T03:17:39;7.80;80.30
19567;DHT22;9930;49.240;8.548;2024-01-06T03:20:10;7.90;80.30
19567;DHT22;9930;49.240;8.548;2024-01-06T03:22:38;7.90;80.30
19567;DHT22;9930;49.240;8.548;2024-01-06T03:25:08;7.90;80.30
19567;DHT22;9930;49.240;8.548;2024-01-06T03:27:37;7.90;80.30
19567;DHT22;9930;49.240;8.548;2024-01-06T03:30:07;7.90;80.40
19567;DHT22;9930;49.240;8.548;2024-01-06T03:32:38;7.90;80.40
19567;DHT22;9930;49.240;8.548;2024-01-06T03:35:08;7.90;80.40
19567;DHT22;9930;49.240;8.548;2024-01-06T03:37:40;7.90;80.40
19567;DHT22;9930;49.240;8.548;2024-01-06T03:40:08;7.90;80.40
19567;DHT22;9930;49.240;8.548;2024-01-06T03:42:38;7.90;80.30
19567;DHT22;9930;49.240;8.548;2024-01-06T03:45:07;7.90;80.40
19567;DHT22;9930;49.240;8.548;2024-01-06T03:47:37;7.90;80.40
19567;DHT22;9930;49.240;8.548;2024-01-06T03:50:10;7.90;80.50
19567;DHT22;9930;49.240;8.548;2024-01-06T03:52:38;7.90;80.50
19567;DHT22;9930;49.240;8.548;2024-01-06T03:55:08;8.00;80.60
19567;DHT22;9930;49.240;8.548;2024-01-06T03:57:37;7.90;80.50
19567;DHT22;9930;49.240;8.548;2024-01-06T04:00:07;7.90;80.40
19567;DHT22;9930;49.240;8.548;2024-01-06T04:02:38;7.90;80.40
19567;DHT22;9930;49.240;8.548;2024-01-06T04:05:08;8.00;80.50
19567;DHT22;9930;49.240;8.548;2024-01-06T04:07:38;8.00;81.40
19567;DHT22;9930;49.240;8.548;2024-01-06T04:10:08;8.00;80.80
19567;DHT22;9930;49.240;8.548;2024-01-06T04:12:37;8.00;80.80
19567;DHT22;9930;49.240;8.548;2024-01-06T04:15:08;8.00;80.80
19567;DHT22;9930;49.240;8.548;2024-01-06T04:17:38;8.00;80.90
19567;DHT22;9930;49.240;8.548;2024-01-06T04:20:08;8.00;80.80
19567;DHT22;9930;49.240;8.548;2024-01-06T04:22:39;8.00;80.90
19567;DHT22;9930;49.240;8.548;2024-01-06T04:25:10;8.00;80.90
19567;DHT22;9930;49.240;8.548;2024-01-06T04:27:36;8.10;80.90
19567;DHT22;9930;49.240;8.548;2024-01-06T04:30:07;8.10;80.90
19567;DHT22;9930;49.240;8.548;2024-01-06T04:32:43;8.10;80.90
19567;DHT22;9930;49.240;8.548;2024-01-06T04:35:16;8.10;80.90
19567;DHT22;9930;49.240;8.548;2024-01-06T04:37:44;8.10;80.90
19567;DHT22;9930;49.240;8.548;2024-01-06T04:40:10;8.10;80.90
19567;DHT22;9930;49.240;8.548;2024-01-06T04:42:38;8.10;80.90
19567;DHT22;9930;49.240;8.548;2024-01-06T04:45:08;8.10;80.90
19567;DHT22;9930;49.240;8.548;2024-01-06T04:47:38;8.20;81.20
19567;DHT22;9930;49.240;8.548;2024-01-06T04:50:08;8.20;80.90
19567;DHT22;9930;49.240;8.548;2024-01-06T04:52:36;8.20;80.90
19567;DHT22;9930;49.240;8.548;2024-01-06T04:55:08;8.20;80.90
19567;DHT22;9930;49.240;8.548;2024-01-06T04:57:38;8.20;81.00
19567;DHT22;9930;49.240;8.548;2024-01-06T05:00:10;8.20;80.90
19567;DHT22;9930;49.240;8.548;2024-01-06T05:02:38;8.20;81.00
19567;DHT22;9930;49.240;8.548;2024-01-06T05:05:11;8.30;80.90
19567;DHT22;9930;49.240;8.548;2024-01-06T05:07:38;8.30;80.90
19567;DHT22;9930;49.240;8.548;2024-01-06T05:10:08;8.30;80.90
19567;DHT22;9930;49.240;8.548;2024-01-06T05:12:38;8.30;80.90
19567;DHT22;9930;49.240;8.548;2024-01-06T05:15:08;8.30;80.90
19567;DHT22;9930;49.240;8.548;2024-01-06T05:17:38;8.30;80.90
19567;DHT22;9930;49.240;8.548;2024-01-06T05:20:08;8.30;81.50
19567;DHT22;9930;49.240;8.548;2024-01-06T05:22:37;8.30;80.80
19567;DHT22;9930;49.240;8.548;2024-01-06T05:25:08;8.40;80.80
19567;DHT22;9930;49.240;8.548;2024-01-06T05:27:38;8.30;80.70
19567;DHT22;9930;49.240;8.548;2024-01-06T05:30:08;8.40;80.70
19567;DHT22;9930;49.240;8.548;2024-01-06T05:32:38;8.40;80.70
19567;DHT22;9930;49.240;8.548;2024-01-06T05:35:08;8.40;80.70
19567;DHT22;9930;49.240;8.548;2024-01-06T05:37:38;8.40;80.70
19567;DHT22;9930;49.240;8.548;2024-01-06T05:40:09;8.40;80.60
19567;DHT22;9930;49.240;8.548;2024-01-06T05:42:38;8.40;80.60
19567;DHT22;9930;49.240;8.548;2024-01-06T05:45:10;8.40;80.60
19567;DHT22;9930;49.240;8.548;2024-01-06T05:47:39;8.40;80.60
19567;DHT22;9930;49.240;8.548;2024-01-06T05:50:08;8.40;80.70
19567;DHT22;9930;49.240;8.548;2024-01-06T05:52:42;8.40;80.60
19567;DHT22;9930;49.240;8.548;2024-01-06T05:55:08;8.40;80.70
19567;DHT22;9930;49.240;8.548;2024-01-06T05:57:40;8.40;80.60
19567;DHT22;9930;49.240;8.548;2024-01-06T06:00:12;8.50;80.60
19567;DHT22;9930;49.240;8.548;2024-01-06T06:02:40;8.50;80.60
19567;DHT22;9930;49.240;8.548;2024-01-06T06:05:08;8.40;80.60
19567;DHT22;9930;49.240;8.548;2024-01-06T06:07:38;8.50;80.60
19567;DHT22;9930;49.240;8.548;2024-01-06T06:10:11;8.40;80.50
19567;DHT22;9930;49.240;8.548;2024-01-06T06:12:38;8.40;80.60
19567;DHT22;9930;49.240;8.548;2024-01-06T06:15:08;8.50;80.60
19567;DHT22;9930;49.240;8.548;2024-01-06T06:17:41;8.40;80.60
19567;DHT22;9930;49.240;8.548;2024-01-06T06:20:08;8.50;80.70
19567;DHT22;9930;49.240;8.548;2024-01-06T06:22:40;8.50;80.50
19567;DHT22;9930;49.240;8.548;2024-01-06T06:25:08;8.40;80.50
19567;DHT22;9930;49.240;8.548;2024-01-06T06:27:38;8.50;80.60
19567;DHT22;9930;49.240;8.548;2024-01-06T06:30:11;8.50;80.50
19567;DHT22;9930;49.240;8.548;2024-01-06T06:32:38;8.40;80.50
19567;DHT22;9930;49.240;8.548;2024-01-06T06:35:08;8.50;80.50
19567;DHT22;9930;49.240;8.548;2024-01-06T06:37:38;8.40;80.50
19567;DHT22;9930;49.240;8.548;2024-01-06T06:40:36;8.40;80.60
19567;DHT22;9930;49.240;8.548;2024-01-06T06:43:07;8.40;80.40
19567;DHT22;9930;49.240;8.548;2024-01-06T06:45:38;8.40;80.50
19567;DHT22;9930;49.240;8.548;2024-01-06T06:48:08;8.50;80.50
19567;DHT22;9930;49.240;8.548;2024-01-06T06:50:47;8.40;80.50
19567;DHT22;9930;49.240;8.548;2024-01-06T06:53:22;8.40;80.50
19567;DHT22;9930;49.240;8.548;2024-01-06T06:55:50;8.50;80.60
19567;DHT22;9930;49.240;8.548;2024-01-06T06:58:18;8.40;80.50
19567;DHT22;9930;49.240;8.548;2024-01-06T07:00:43;8.50;80.50
19567;DHT22;9930;49.240;8.548;2024-01-06T07:03:09;8.50;80.60
19567;DHT22;9930;49.240;8.548;2024-01-06T07:05:38;8.50;80.50
19567;DHT22;9930;49.240;8.548;2024-01-06T07:08:11;8.50;80.60
19567;DHT22;9930;49.240;8.548;2024-01-06T07:10:40;8.50;80.60
19567;DHT22;9930;49.240;8.548;2024-01-06T07:13:11;8.50;80.60
19567;DHT22;9930;49.240;8.548;2024-01-06T07:15:40;8.40;80.60
19567;DHT22;9930;49.240;8.548;2024-01-06T07:18:08;8.50;80.60
19567;DHT22;9930;49.240;8.548;2024-01-06T07:20:38;8.50;80.60
19567;DHT22;9930;49.240;8.548;2024-01-06T07:23:09;8.50;80.60
19567;DHT22;9930;49.240;8.548;2024-01-06T07:25:38;8.50;80.60
19567;DHT22;9930;49.240;8.548;2024-01-06T07:28:08;8.50;80.60
19567;DHT22;9930;49.240;8.548;2024-01-06T07:30:38;8.50;80.50
19567;DHT22;9930;49.240;8.548;2024-01-06T07:33:11;8.50;80.60
19567;DHT22;9930;49.240;8.548;2024-01-06T07:35:39;8.50;80.60
19567;DHT22;9930;49.240;8.548;2024-01-06T07:38:10;8.50;80.60
19567;DHT22;9930;49.240;8.548;2024-01-06T07:40:42;8.50;80.70
19567;DHT22;9930;49.240;8.548;2024-01-06T07:43:09;8.50;80.70
19567;DHT22;9930;49.240;8.548;2024-01-06T07:45:38;8.50;80.70
19567;DHT22;9930;49.240;8.548;2024-01-06T07:48:08;8.50;80.70
19567;DHT22;9930;49.240;8.548;2024-01-06T07:50:38;8.50;80.80
19567;DHT22;9930;49.240;8.548;2024-01-06T07:53:07;8.50;80.70
19567;DHT22;9930;49.240;8.548;2024-01-06T07:55:37;8.50;80.80
19567;DHT22;9930;49.240;8.548;2024-01-06T07:58:07;8.50;80.80
19567;DHT22;9930;49.240;8.548;2024-01-06T08:00:40;8.50;80.80
19567;DHT22;9930;49.240;8.548;2024-01-06T08:03:08;8.50;80.80
19567;DHT22;9930;49.240;8.548;2024-01-06T08:05:36;8.60;80.80
19567;DHT22;9930;49.240;8.548;2024-01-06T08:08:07;8.60;80.80
19567;DHT22;9930;49.240;8.548;2024-01-06T08:10:35;8.60;80.80
19567;DHT22;9930;49.240;8.548;2024-01-06T08:13:05;8.60;80.90
19567;DHT22;9930;49.240;8.548;2024-01-06T08:15:31;8.70;80.90
19567;DHT22;9930;49.240;8.548;2024-01-06T08:17:58;8.60;80.90
19567;DHT22;9930;49.240;8.548;2024-01-06T08:20:24;8.70;81.00
19567;DHT22;9930;49.240;8.548;2024-01-06T08:22:50;8.70;81.00
19567;DHT22;9930;49.240;8.548;2024-01-06T08:25:17;8.70;81.00
19567;DHT22;9930;49.240;8.548;2024-01-06T08:27:44;8.80;81.10
19567;DHT22;9930;49.240;8.548;2024-01-06T08:30:12;8.70;81.10
19567;DHT22;9930;49.240;8.548;2024-01-06T08:32:40;8.70;81.10
19567;DHT22;9930;49.240;8.548;2024-01-06T08:35:07;8.80;81.20
19567;DHT22;9930;49.240;8.548;2024-01-06T08:37:37;8.80;81.10
19567;DHT22;9930;49.240;8.548;2024-01-06T08:40:09;8.90;81.10
19567;DHT22;9930;49.240;8.548;2024-01-06T08:42:37;8.80;81.00
19567;DHT22;9930;49.240;8.548;2024-01-06T08:45:10;8.90;81.10
19567;DHT22;9930;49.240;8.548;2024-01-06T08:47:37;8.90;81.10
19567;DHT22;9930;49.240;8.548;2024-01-06T08:50:07;8.90;81.10
19567;DHT22;9930;49.240;8.548;2024-01-06T08:52:38;8.90;81.10
19567;DHT22;9930;49.240;8.548;2024-01-06T08:55:07;8.90;81.10
19567;DHT22;9930;49.240;8.548;2024-01-06T08:57:38;8.90;81.10
19567;DHT22;9930;49.240;8.548;2024-01-06T09:00:10;9.00;81.10
19567;DHT22;9930;49.240;8.548;2024-01-06T09:02:38;8.90;81.10
19567;DHT22;9930;49.240;8.548;2024-01-06T09:05:08;9.00;81.20
19567;DHT22;9930;49.240;8.548;2024-01-06T09:07:38;9.00;81.20
19567;DHT22;9930;49.240;8.548;2024-01-06T09:10:10;9.00;81.30
19567;DHT22;9930;49.240;8.548;2024-01-06T09:12:38;9.00;81.50
19567;DHT22;9930;49.240;8.548;2024-01-06T09:15:09;9.10;81.50
19567;DHT22;9930;49.240;8.548;2024-01-06T09:17:38;9.10;81.60
19567;DHT22;9930;49.240;8.548;2024-01-06T09:20:07;9.10;81.60
19567;DHT22;9930;49.240;8.548;2024-01-06T09:22:38;9.10;81.50
19567;DHT22;9930;49.240;8.548;2024-01-06T09:25:08;9.20;81.40
19567;DHT22;9930;49.240;8.548;2024-01-06T09:27:37;9.20;81.50
19567;DHT22;9930;49.240;8.548;2024-01-06T09:30:08;9.20;81.40
19567;DHT22;9930;49.240;8.548;2024-01-06T09:32:37;9.20;81.50
19567;DHT22;9930;49.240;8.548;2024-01-06T09:35:14;9.20;81.50
19567;DHT22;9930;49.240;8.548;2024-01-06T09:37:42;9.10;81.60
19567;DHT22;9930;49.240;8.548;2024-01-06T09:40:12;9.20;81.60
19567;DHT22;9930;49.240;8.548;2024-01-06T09:42:43;9.20;81.60
19567;DHT22;9930;49.240;8.548;2024-01-06T09:45:09;9.20;81.70
19567;DHT22;9930;49.240;8.548;2024-01-06T09:47:38;9.20;81.70
19567;DHT22;9930;49.240;8.548;2024-01-06T09:50:09;9.20;81.70
19567;DHT22;9930;49.240;8.548;2024-01-06T09:52:40;9.20;81.70
19567;DHT22;9930;49.240;8.548;2024-01-06T09:55:12;9.20;81.80
19567;DHT22;9930;49.240;8.548;2024-01-06T09:57:38;9.20;81.80
19567;DHT22;9930;49.240;8.548;2024-01-06T10:00:08;9.20;81.60
19567;DHT22;9930;49.240;8.548;2024-01-06T10:02:38;9.20;81.60
19567;DHT22;9930;49.240;8.548;2024-01-06T10:05:08;9.20;81.70
19567;DHT22;9930;49.240;8.548;2024-01-06T10:07:36;9.20;81.80
19567;DHT22;9930;49.240;8.548;2024-01-06T10:10:09;9.20;81.90
19567;DHT22;9930;49.240;8.548;2024-01-06T10:12:42;9.20;82.00
19567;DHT22;9930;49.240;8.548;2024-01-06T10:15:12;9.20;82.00
19567;DHT22;9930;49.240;8.548;2024-01-06T10:17:38;9.20;82.20
19567;DHT22;9930;49.240;8.548;2024-01-06T10:20:09;9.20;82.90
19567;DHT22;9930;49.240;8.548;2024-01-06T10:22:41;9.20;82.20
19567;DHT22;9930;49.240;8.548;2024-01-06T10:25:09;9.20;82.20
19567;DHT22;9930;49.240;8.548;2024-01-06T10:27:41;9.30;82.20
19567;DHT22;9930;49.240;8.548;2024-01-06T10:30:08;9.30;82.30
19567;DHT22;9930;49.240;8.548;2024-01-06T10:32:41;9.30;82.40
19567;DHT22;9930;49.240;8.548;2024-01-06T10:35:09;9.40;83.20
19567;DHT22;9930;49.240;8.548;2024-01-06T10:37:38;9.40;82.50
19567;DHT22;9930;49.240;8.548;2024-01-06T10:42:41;9.50;82.40
19567;DHT22;9930;49.240;8.548;2024-01-06T10:45:12;9.50;82.40
19567;DHT22;9930;49.240;8.548;2024-01-06T10:47:43;9.50;82.30
19567;DHT22;9930;49.240;8.548;2024-01-06T10:50:09;9.60;82.40
19567;DHT22;9930;49.240;8.548;2024-01-06T10:52:38;9.60;82.40
19567;DHT22;9930;49.240;8.548;2024-01-06T10:55:08;9.60;82.40
19567;DHT22;9930;49.240;8.548;2024-01-06T10:57:38;9.60;82.30
19567;DHT22;9930;49.240;8.548;2024-01-06T11:00:08;9.70;82.30
19567;DHT22;9930;49.240;8.548;2024-01-06T11:02:38;9.70;82.10
19567;DHT22;9930;49.240;8.548;2024-01-06T11:05:05;9.70;82.20
19567;DHT22;9930;49.240;8.548;2024-01-06T11:07:36;9.80;82.20
19567;DHT22;9930;49.240;8.548;2024-01-06T11:10:18;9.80;82.30
19567;DHT22;9930;49.240;8.548;2024-01-06T11:13:10;9.80;82.30
19567;DHT22;9930;49.240;8.548;2024-01-06T11:15:47;9.90;82.40
19567;DHT22;9930;49.240;8.548;2024-01-06T11:18:35;9.90;82.40
19567;DHT22;9930;49.240;8.548;2024-01-06T11:21:16;9.90;82.30
19567;DHT22;9930;49.240;8.548;2024-01-06T11:26:39;10.00;82.30
19567;DHT22;9930;49.240;8.548;2024-01-06T11:29:07;10.10;82.20
19567;DHT22;9930;49.240;8.548;2024-01-06T11:31:38;10.10;82.10
19567;DHT22;9930;49.240;8.548;2024-01-06T11:34:17;10.10;81.90
19567;DHT22;9930;49.240;8.548;2024-01-06T11:36:44;10.20;81.70
19567;DHT22;9930;49.240;8.548;2024-01-06T11:39:40;10.20;81.60
19567;DHT22;9930;49.240;8.548;2024-01-06T11:42:11;10.10;81.40
19567;DHT22;9930;49.240;8.548;2024-01-06T11:44:43;10.20;81.40
19567;DHT22;9930;49.240;8.548;2024-01-06T11:47:11;10.20;81.30
19567;DHT22;9930;49.240;8.548;2024-01-06T11:49:38;10.20;81.30
19567;DHT22;9930;49.240;8.548;2024-01-06T11:52:07;10.10;81.30
19567;DHT22;9930;49.240;8.548;2024-01-06T11:54:37;10.10;81.30
19567;DHT22;9930;49.240;8.548;2024-01-06T11:57:12;10.10;81.30
19567;DHT22;9930;49.240;8.548;2024-01-06T11:59:38;10.10;81.30
19567;DHT22;9930;49.240;8.548;2024-01-06T12:02:11;10.10;81.30
19567;DHT22;9930;49.240;8.548;2024-01-06T12:04:38;10.10;81.20
19567;DHT22;9930;49.240;8.548;2024-01-06T12:07:09;10.10;81.20
19567;DHT22;9930;49.240;8.548;2024-01-06T12:09:38;10.10;81.20
19567;DHT22;9930;49.240;8.548;2024-01-06T12:12:08;10.10;81.30
19567;DHT22;9930;49.240;8.548;2024-01-06T12:14:40;10.10;81.30
19567;DHT22;9930;49.240;8.548;2024-01-06T12:17:11;10.10;81.30
19567;DHT22;9930;49.240;8.548;2024-01-06T12:19:39;10.10;81.40
19567;DHT22;9930;49.240;8.548;2024-01-06T12:22:12;10.10;81.40
19567;DHT22;9930;49.240;8.548;2024-01-06T12:24:39;10.10;81.50
19567;DHT22;9930;49.240;8.548;2024-01-06T12:27:13;10.10;81.50
19567;DHT22;9930;49.240;8.548;2024-01-06T12:29:41;10.00;81.40
19567;DHT22;9930;49.240;8.548;2024-01-06T12:32:10;10.10;81.50
19567;DHT22;9930;49.240;8.548;2024-01-06T12:34:38;10.10;81.60
19567;DHT22;9930;49.240;8.548;2024-01-06T12:37:08;10.10;81.60
19567;DHT22;9930;49.240;8.548;2024-01-06T12:39:41;10.10;81.50
19567;DHT22;9930;49.240;8.548;2024-01-06T12:42:11;10.10;81.40
19567;DHT22;9930;49.240;8.548;2024-01-06T12:44:40;10.10;81.50
19567;DHT22;9930;49.240;8.548;2024-01-06T12:47:08;10.10;81.50
19567;DHT22;9930;49.240;8.548;2024-01-06T12:49:38;10.10;81.60
19567;DHT22;9930;49.240;8.548;2024-01-06T12:52:06;10.00;81.50
19567;DHT22;9930;49.240;8.548;2024-01-06T12:54:32;10.10;81.50
19567;DHT22;9930;49.240;8.548;2024-01-06T12:57:05;10.00;81.40
19567;DHT22;9930;49.240;8.548;2024-01-06T12:59:36;10.00;81.40
19567;DHT22;9930;49.240;8.548;2024-01-06T13:02:06;10.00;81.50
19567;DHT22;9930;49.240;8.548;2024-01-06T13:04:31;10.00;81.70
19567;DHT22;9930;49.240;8.548;2024-01-06T13:06:57;10.00;81.80
19567;DHT22;9930;49.240;8.548;2024-01-06T13:09:23;10.00;81.90
19567;DHT22;9930;49.240;8.548;2024-01-06T13:11:50;10.00;82.10
19567;DHT22;9930;49.240;8.548;2024-01-06T13:14:17;10.00;82.20
19567;DHT22;9930;49.240;8.548;2024-01-06T13:16:48;10.00;82.30
19567;DHT22;9930;49.240;8.548;2024-01-06T13:19:13;10.00;82.40
19567;DHT22;9930;49.240;8.548;2024-01-06T13:21:44;10.00;82.40
19567;DHT22;9930;49.240;8.548;2024-01-06T13:24:09;10.10;82.50
19567;DHT22;9930;49.240;8.548;2024-01-06T13:26:38;10.10;82.60
19567;DHT22;9930;49.240;8.548;2024-01-06T13:29:09;10.10;82.70
19567;DHT22;9930;49.240;8.548;2024-01-06T13:31:38;10.10;83.40
19567;DHT22;9930;49.240;8.548;2024-01-06T13:34:08;10.10;82.60
19567;DHT22;9930;49.240;8.548;2024-01-06T13:36:38;10.10;82.60
19567;DHT22;9930;49.240;8.548;2024-01-06T13:39:09;10.20;82.50
19567;DHT22;9930;49.240;8.548;2024-01-06T13:41:46;10.10;82.50
19567;DHT22;9930;49.240;8.548;2024-01-06T13:44:15;10.20;82.60
19567;DHT22;9930;49.240;8.548;2024-01-06T13:46:41;10.20;82.50
19567;DHT22;9930;49.240;8.548;2024-01-06T13:49:10;10.20;82.50
19567;DHT22;9930;49.240;8.548;2024-01-06T13:51:39;10.20;82.60
19567;DHT22;9930;49.240;8.548;2024-01-06T13:54:09;10.20;82.20
19567;DHT22;9930;49.240;8.548;2024-01-06T13:56:36;10.20;82.20
19567;DHT22;9930;49.240;8.548;2024-01-06T13:59:08;10.20;82.20
19567;DHT22;9930;49.240;8.548;2024-01-06T14:01:37;10.10;82.10
19567;DHT22;9930;49.240;8.548;2024-01-06T14:04:05;10.10;82.10
19567;DHT22;9930;49.240;8.548;2024-01-06T14:06:32;10.10;82.10
19567;DHT22;9930;49.240;8.548;2024-01-06T14:09:01;10.10;82.20
19567;DHT22;9930;49.240;8.548;2024-01-06T14:11:27;10.10;82.30
19567;DHT22;9930;49.240;8.548;2024-01-06T14:13:53;10.10;82.30
19567;DHT22;9930;49.240;8.548;2024-01-06T14:16:21;10.10;82.30
19567;DHT22;9930;49.240;8.548;2024-01-06T14:18:47;10.10;82.40
19567;DHT22;9930;49.240;8.548;2024-01-06T14:21:13;10.10;82.40
19567;DHT22;9930;49.240;8.548;2024-01-06T14:23:45;10.10;82.40
19567;DHT22;9930;49.240;8.548;2024-01-06T14:26:11;10.10;82.40
19567;DHT22;9930;49.240;8.548;2024-01-06T14:28:38;10.10;82.40
19567;DHT22;9930;49.240;8.548;2024-01-06T14:31:08;10.10;82.40
19567;DHT22;9930;49.240;8.548;2024-01-06T14:33:40;10.10;82.50
19567;DHT22;9930;49.240;8.548;2024-01-06T14:36:11;10.10;82.50
19567;DHT22;9930;49.240;8.548;2024-01-06T14:38:38;10.10;82.40
19567;DHT22;9930;49.240;8.548;2024-01-06T14:41:08;10.10;82.30
19567;DHT22;9930;49.240;8.548;2024-01-06T14:43:38;10.10;82.20
19567;DHT22;9930;49.240;8.548;2024-01-06T14:46:11;10.00;82.20
19567;DHT22;9930;49.240;8.548;2024-01-06T14:48:38;10.00;82.20
19567;DHT22;9930;49.240;8.548;2024-01-06T14:51:08;10.00;82.20
19567;DHT22;9930;49.240;8.548;2024-01-06T14:53:38;10.00;82.30
19567;DHT22;9930;49.240;8.548;2024-01-06T14:56:08;10.00;82.30
19567;DHT22;9930;49.240;8.548;2024-01-06T14:58:38;10.00;82.30
19567;DHT22;9930;49.240;8.548;2024-01-06T15:01:08;10.00;82.40
19567;DHT22;9930;49.240;8.548;2024-01-06T15:03:38;10.00;82.30
19567;DHT22;9930;49.240;8.548;2024-01-06T15:06:08;10.00;82.30
19567;DHT22;9930;49.240;8.548;2024-01-06T15:08:38;9.90;82.40
19567;DHT22;9930;49.240;8.548;2024-01-06T15:11:08;9.90;82.40
19567;DHT22;9930;49.240;8.548;2024-01-06T15:13:38;9.90;82.50
19567;DHT22;9930;49.240;8.548;2024-01-06T15:16:09;9.90;82.50
19567;DHT22;9930;49.240;8.548;2024-01-06T15:18:38;9.90;82.50
19567;DHT22;9930;49.240;8.548;2024-01-06T15:21:11;9.90;82.50
19567;DHT22;9930;49.240;8.548;2024-01-06T15:23:38;9.90;82.60
19567;DHT22;9930;49.240;8.548;2024-01-06T15:26:07;9.90;82.60
19567;DHT22;9930;49.240;8.548;2024-01-06T15:28:37;9.90;82.60
19567;DHT22;9930;49.240;8.548;2024-01-06T15:31:08;9.90;82.70
19567;DHT22;9930;49.240;8.548;2024-01-06T15:33:38;9.90;82.80
19567;DHT22;9930;49.240;8.548;2024-01-06T15:36:09;9.90;82.80
19567;DHT22;9930;49.240;8.548;2024-01-06T15:38:42;9.90;82.80
19567;DHT22;9930;49.240;8.548;2024-01-06T15:41:08;9.80;82.80
19567;DHT22;9930;49.240;8.548;2024-01-06T15:43:36;9.90;82.90
19567;DHT22;9930;49.240;8.548;2024-01-06T15:46:08;9.80;82.80
19567;DHT22;9930;49.240;8.548;2024-01-06T15:48:34;9.80;82.80
19567;DHT22;9930;49.240;8.548;2024-01-06T15:51:01;9.80;83.70
19567;DHT22;9930;49.240;8.548;2024-01-06T15:53:27;9.80;82.90
19567;DHT22;9930;49.240;8.548;2024-01-06T15:55:56;9.80;82.90
19567;DHT22;9930;49.240;8.548;2024-01-06T15:58:22;9.80;82.90
19567;DHT22;9930;49.240;8.548;2024-01-06T16:00:50;9.80;83.00
19567;DHT22;9930;49.240;8.548;2024-01-06T16:03:15;9.80;83.10
19567;DHT22;9930;49.240;8.548;2024-01-06T16:05:41;9.80;83.10
19567;DHT22;9930;49.240;8.548;2024-01-06T16:08:08;9.80;83.10
19567;DHT22;9930;49.240;8.548;2024-01-06T16:10:37;9.80;83.20
19567;DHT22;9930;49.240;8.548;2024-01-06T16:13:06;9.80;83.20
19567;DHT22;9930;49.240;8.548;2024-01-06T16:15:37;9.80;83.30
19567;DHT22;9930;49.240;8.548;2024-01-06T16:18:07;9.70;83.30